sensor_id;sensor_type;location;lat;lon;timestamp;pressure;altitude;pressure_sealevel;temperature;humidity
6829;BME280;17930;48.592;8.868;2022-09-24T00:02:16;96500.97;;;11.70;100.00
6829;BME280;17930;48.592;8.868;2022-09-24T00:04:43;96493.63;;;11.54;100.00
6829;BME280;17930;48.592;8.868;2022-09-24T00:07:09;96494.84;;;11.43;100.00
6829;BME280;17930;48.592;8.868;2022-09-24T00:09:37;96498.00;;;11.22;100.00
6829;BME280;17930;48.592;8.868;2022-09-24T00:12:04;96496.66;;;11.24;100.00
6829;BME280;17930;48.592;8.868;2022-09-24T00:14:31;96490.91;;;11.04;100.00
6829;BME280;17930;48.592;8.868;2022-09-24T00:16:57;96491.47;;;11.01;100.00
6829;BME280;17930;48.592;8.868;2022-09-24T00:19:24;96493.56;;;10.99;100.00
6829;BME280;17930;48.592;8.868;2022-09-24T00:21:51;96486.06;;;11.16;100.00
6829;BME280;17930;48.592;8.868;2022-09-24T00:24:17;96481.03;;;11.01;100.00
6829;BME280;17930;48.592;8.868;2022-09-24T00:26:59;96487.56;;;10.80;100.00
6829;BME280;17930;48.592;8.868;2022-09-24T00:29:27;96485.22;;;10.78;100.00
6829;BME280;17930;48.592;8.868;2022-09-24T00:31:54;96485.81;;;10.94;100.00
6829;BME280;17930;48.592;8.868;2022-09-24T00:34:21;96489.00;;;10.91;100.00
6829;BME280;17930;48.592;8.868;2022-09-24T00:36:47;96482.28;;;10.85;100.00
6829;BME280;17930;48.592;8.868;2022-09-24T00:39:15;96484.94;;;10.80;100.00
6829;BME280;17930;48.592;8.868;2022-09-24T00:41:42;96473.34;;;10.91;100.00
6829;BME280;17930;48.592;8.868;2022-09-24T00:44:44;96465.94;;;10.98;100.00
6829;BME280;17930;48.592;8.868;2022-09-24T00:47:13;96464.53;;;11.05;100.00
6829;BME280;17930;48.592;8.868;2022-09-24T00:49:42;96462.38;;;10.89;100.00
6829;BME280;17930;48.592;8.868;2022-09-24T00:52:10;96460.75;;;10.74;100.00
6829;BME280;17930;48.592;8.868;2022-09-24T00:54:37;96462.16;;;10.67;100.00
6829;BME280;17930;48.592;8.868;2022-09-24T00:57:04;96459.78;;;10.47;100.00
6829;BME280;17930;48.592;8.868;2022-09-24T00:59:31;96450.47;;;10.41;100.00
6829;BME280;17930;48.592;8.868;2022-09-24T01:01:59;96450.56;;;10.31;100.00
6829;BME280;17930;48.592;8.868;2022-09-24T01:04:27;96452.69;;;10.01;100.00
6829;BME280;17930;48.592;8.868;2022-09-24T01:06:55;96457.94;;;9.91;100.00
6829;BME280;17930;48.592;8.868;2022-09-24T01:09:23;96446.22;;;9.94;100.00
6829;BME280;17930;48.592;8.868;2022-09-24T01:11:59;96445.81;;;9.82;100.00
6829;BME280;17930;48.592;8.868;2022-09-24T01:14:48;96450.97;;;9.87;100.00
6829;BME280;17930;48.592;8.868;2022-09-24T01:17:25;96442.75;;;9.75;100.00
6829;BME280;17930;48.592;8.868;2022-09-24T01:20:12;96435.56;;;9.62;100.00
6829;BME280;17930;48.592;8.868;2022-09-24T01:22:56;96432.06;;;9.71;100.00
6829;BME280;17930;48.592;8.868;2022-09-24T01:25:31;96432.34;;;9.70;100.00
6829;BME280;17930;48.592;8.868;2022-09-24T01:28:13;96427.69;;;9.67;100.00
6829;BME280;17930;48.592;8.868;2022-09-24T01:30:47;96414.75;;;9.57;100.00
6829;BME280;17930;48.592;8.868;2022-09-24T01:33:19;96404.63;;;9.56;100.00
6829;BME280;17930;48.592;8.868;2022-09-24T01:35:49;96406.00;;;9.43;100.00
6829;BME280;17930;48.592;8.868;2022-09-24T01:38:19;96413.88;;;9.38;100.00
6829;BME280;17930;48.592;8.868;2022-09-24T01:40:47;96404.44;;;9.47;100.00
6829;BME280;17930;48.592;8.868;2022-09-24T01:43:19;96410.22;;;9.39;100.00
6829;BME280;17930;48.592;8.868;2022-09-24T01:45:48;96401.41;;;9.35;100.00
6829;BME280;17930;48.592;8.868;2022-09-24T01:48:15;96413.44;;;9.26;100.00
6829;BME280;17930;48.592;8.868;2022-09-24T01:50:49;96406.72;;;9.20;100.00
6829;BME280;17930;48.592;8.868;2022-09-24T01:53:20;96402.94;;;9.36;100.00
6829;BME280;17930;48.592;8.868;2022-09-24T01:55:54;96398.25;;;9.38;100.00
6829;BME280;17930;48.592;8.868;2022-09-24T01:58:27;96388.94;;;9.32;100.00
6829;BME280;17930;48.592;8.868;2022-09-24T02:01:01;96397.75;;;9.36;100.00
6829;BME280;17930;48.592;8.868;2022-09-24T02:03:32;96405.53;;;9.41;100.00
6829;BME280;17930;48.592;8.868;2022-09-24T02:06:04;96404.31;;;9.62;100.00
6829;BME280;17930;48.592;8.868;2022-09-24T02:08:37;96398.41;;;9.80;100.00
6829;BME280;17930;48.592;8.868;2022-09-24T02:11:06;96403.13;;;9.78;100.00
6829;BME280;17930;48.592;8.868;2022-09-24T02:13:38;96393.91;;;9.62;100.00
6829;BME280;17930;48.592;8.868;2022-09-24T02:16:12;96404.81;;;9.64;100.00
6829;BME280;17930;48.592;8.868;2022-09-24T02:18:43;96397.66;;;10.08;100.00
6829;BME280;17930;48.592;8.868;2022-09-24T02:21:14;96401.91;;;9.99;100.00
6829;BME280;17930;48.592;8.868;2022-09-24T02:23:44;96382.91;;;9.93;100.00
6829;BME280;17930;48.592;8.868;2022-09-24T02:26:13;96380.59;;;9.92;100.00
6829;BME280;17930;48.592;8.868;2022-09-24T02:28:39;96379.22;;;10.22;100.00
6829;BME280;17930;48.592;8.868;2022-09-24T02:31:08;96378.09;;;10.10;100.00
6829;BME280;17930;48.592;8.868;2022-09-24T02:33:41;96383.22;;;10.15;100.00
6829;BME280;17930;48.592;8.868;2022-09-24T02:36:26;96384.94;;;10.24;100.00
6829;BME280;17930;48.592;8.868;2022-09-24T02:38:53;96393.44;;;10.12;100.00
6829;BME280;17930;48.592;8.868;2022-09-24T02:41:21;96386.06;;;10.19;100.00
6829;BME280;17930;48.592;8.868;2022-09-24T02:43:50;96389.66;;;10.22;100.00
6829;BME280;17930;48.592;8.868;2022-09-24T02:46:16;96393.81;;;10.23;100.00
6829;BME280;17930;48.592;8.868;2022-09-24T02:48:44;96394.88;;;10.22;100.00
6829;BME280;17930;48.592;8.868;2022-09-24T02:51:11;96380.56;;;10.43;100.00
6829;BME280;17930;48.592;8.868;2022-09-24T02:53:38;96379.56;;;10.39;100.00
6829;BME280;17930;48.592;8.868;2022-09-24T02:56:05;96380.66;;;10.33;100.00
6829;BME280;17930;48.592;8.868;2022-09-24T02:58:33;96372.41;;;10.26;100.00
6829;BME280;17930;48.592;8.868;2022-09-24T03:01:02;96366.91;;;10.28;100.00
6829;BME280;17930;48.592;8.868;2022-09-24T03:03:28;96356.66;;;10.36;100.00
6829;BME280;17930;48.592;8.868;2022-09-24T03:05:56;96355.16;;;10.30;100.00
6829;BME280;17930;48.592;8.868;2022-09-24T03:08:24;96342.13;;;10.30;100.00
6829;BME280;17930;48.592;8.868;2022-09-24T03:10:51;96359.38;;;10.26;100.00
6829;BME280;17930;48.592;8.868;2022-09-24T03:13:18;96354.72;;;10.23;100.00
6829;BME280;17930;48.592;8.868;2022-09-24T03:15:45;96353.41;;;10.26;100.00
6829;BME280;17930;48.592;8.868;2022-09-24T03:18:12;96345.78;;;10.29;100.00
6829;BME280;17930;48.592;8.868;2022-09-24T03:20:39;96353.28;;;10.36;100.00
6829;BME280;17930;48.592;8.868;2022-09-24T03:23:08;96366.59;;;10.34;100.00
6829;BME280;17930;48.592;8.868;2022-09-24T03:25:34;96358.69;;;10.39;100.00
6829;BME280;17930;48.592;8.868;2022-09-24T03:28:01;96357.44;;;10.37;100.00
6829;BME280;17930;48.592;8.868;2022-09-24T03:30:28;96350.94;;;10.34;100.00
6829;BME280;17930;48.592;8.868;2022-09-24T03:33:12;96346.09;;;10.46;100.00
6829;BME280;17930;48.592;8.868;2022-09-24T03:35:39;96351.25;;;10.51;100.00
6829;BME280;17930;48.592;8.868;2022-09-24T03:38:08;96362.03;;;10.45;100.00
6829;BME280;17930;48.592;8.868;2022-09-24T03:40:34;96354.03;;;10.36;100.00
6829;BME280;17930;48.592;8.868;2022-09-24T03:43:01;96352.59;;;10.49;100.00
6829;BME280;17930;48.592;8.868;2022-09-24T03:45:27;96355.81;;;10.41;100.00
6829;BME280;17930;48.592;8.868;2022-09-24T03:47:54;96351.22;;;10.33;100.00
6829;BME280;17930;48.592;8.868;2022-09-24T03:50:21;96347.31;;;10.35;100.00
6829;BME280;17930;48.592;8.868;2022-09-24T03:52:47;96347.84;;;10.51;100.00
6829;BME280;17930;48.592;8.868;2022-09-24T03:55:16;96353.16;;;10.64;100.00
6829;BME280;17930;48.592;8.868;2022-09-24T03:57:42;96355.41;;;10.52;100.00
6829;BME280;17930;48.592;8.868;2022-09-24T04:00:10;96353.66;;;10.66;100.00
6829;BME280;17930;48.592;8.868;2022-09-24T04:02:37;96333.50;;;10.53;100.00
6829;BME280;17930;48.592;8.868;2022-09-24T04:05:05;96335.81;;;10.55;100.00
6829;BME280;17930;48.592;8.868;2022-09-24T04:07:32;96331.03;;;10.62;100.00
6829;BME280;17930;48.592;8.868;2022-09-24T04:09:58;96332.16;;;10.56;100.00
6829;BME280;17930;48.592;8.868;2022-09-24T04:12:26;96333.78;;;10.52;100.00
6829;BME280;17930;48.592;8.868;2022-09-24T04:14:54;96328.50;;;10.57;100.00
6829;BME280;17930;48.592;8.868;2022-09-24T04:17:20;96329.69;;;10.64;100.00
6829;BME280;17930;48.592;8.868;2022-09-24T04:19:47;96330.19;;;10.66;100.00
6829;BME280;17930;48.592;8.868;2022-09-24T04:22:15;96330.41;;;10.88;100.00
6829;BME280;17930;48.592;8.868;2022-09-24T04:24:42;96326.53;;;10.85;100.00
6829;BME280;17930;48.592;8.868;2022-09-24T04:27:09;96315.53;;;10.70;100.00
6829;BME280;17930;48.592;8.868;2022-09-24T04:29:37;96317.56;;;10.73;100.00
6829;BME280;17930;48.592;8.868;2022-09-24T04:32:04;96317.78;;;10.95;100.00
6829;BME280;17930;48.592;8.868;2022-09-24T04:34:30;96319.75;;;10.84;100.00
6829;BME280;17930;48.592;8.868;2022-09-24T04:36:57;96331.75;;;10.67;100.00
6829;BME280;17930;48.592;8.868;2022-09-24T04:39:24;96320.97;;;10.55;100.00
6829;BME280;17930;48.592;8.868;2022-09-24T04:41:52;96318.78;;;10.44;100.00
6829;BME280;17930;48.592;8.868;2022-09-24T04:44:18;96316.38;;;10.47;100.00
6829;BME280;17930;48.592;8.868;2022-09-24T04:46:46;96322.06;;;10.49;100.00
6829;BME280;17930;48.592;8.868;2022-09-24T04:49:13;96323.00;;;10.40;100.00
6829;BME280;17930;48.592;8.868;2022-09-24T04:51:40;96323.91;;;10.67;100.00
6829;BME280;17930;48.592;8.868;2022-09-24T04:54:07;96330.28;;;10.61;100.00
6829;BME280;17930;48.592;8.868;2022-09-24T04:56:34;96322.91;;;10.81;100.00
6829;BME280;17930;48.592;8.868;2022-09-24T04:59:00;96333.34;;;10.63;100.00
6829;BME280;17930;48.592;8.868;2022-09-24T05:01:27;96330.03;;;10.58;100.00
6829;BME280;17930;48.592;8.868;2022-09-24T05:03:55;96327.41;;;10.39;100.00
6829;BME280;17930;48.592;8.868;2022-09-24T05:06:22;96333.56;;;10.30;100.00
6829;BME280;17930;48.592;8.868;2022-09-24T05:08:49;96330.38;;;10.33;100.00
6829;BME280;17930;48.592;8.868;2022-09-24T05:11:15;96333.63;;;10.62;100.00
6829;BME280;17930;48.592;8.868;2022-09-24T05:13:43;96332.44;;;10.54;100.00
6829;BME280;17930;48.592;8.868;2022-09-24T05:16:10;96338.28;;;10.46;100.00
6829;BME280;17930;48.592;8.868;2022-09-24T05:18:37;96340.34;;;10.68;100.00
6829;BME280;17930;48.592;8.868;2022-09-24T05:21:05;96338.94;;;10.57;100.00
6829;BME280;17930;48.592;8.868;2022-09-24T05:23:32;96345.13;;;10.61;100.00
6829;BME280;17930;48.592;8.868;2022-09-24T05:25:58;96349.22;;;10.48;100.00
6829;BME280;17930;48.592;8.868;2022-09-24T05:28:43;96338.63;;;10.40;100.00
6829;BME280;17930;48.592;8.868;2022-09-24T05:31:10;96343.19;;;10.29;100.00
6829;BME280;17930;48.592;8.868;2022-09-24T05:33:36;96353.47;;;10.39;100.00
6829;BME280;17930;48.592;8.868;2022-09-24T05:36:05;96355.16;;;10.30;100.00
6829;BME280;17930;48.592;8.868;2022-09-24T05:38:31;96352.31;;;10.50;100.00
6829;BME280;17930;48.592;8.868;2022-09-24T05:40:58;96353.91;;;10.46;100.00
6829;BME280;17930;48.592;8.868;2022-09-24T05:43:25;96351.25;;;10.51;100.00
6829;BME280;17930;48.592;8.868;2022-09-24T05:45:52;96344.91;;;10.57;100.00
6829;BME280;17930;48.592;8.868;2022-09-24T05:48:21;96349.13;;;10.53;100.00
6829;BME280;17930;48.592;8.868;2022-09-24T05:50:48;96354.34;;;10.53;100.00
6829;BME280;17930;48.592;8.868;2022-09-24T05:53:21;96358.59;;;10.86;100.00
6829;BME280;17930;48.592;8.868;2022-09-24T05:55:48;96347.53;;;10.94;100.00
6829;BME280;17930;48.592;8.868;2022-09-24T05:58:14;96346.63;;;10.85;100.00
6829;BME280;17930;48.592;8.868;2022-09-24T06:00:42;96353.75;;;10.79;100.00
6829;BME280;17930;48.592;8.868;2022-09-24T06:03:11;96359.38;;;10.86;100.00
6829;BME280;17930;48.592;8.868;2022-09-24T06:05:42;96357.75;;;10.90;100.00
6829;BME280;17930;48.592;8.868;2022-09-24T06:08:09;96360.84;;;11.11;100.00
6829;BME280;17930;48.592;8.868;2022-09-24T06:10:37;96374.94;;;11.10;100.00
6829;BME280;17930;48.592;8.868;2022-09-24T06:13:04;96374.38;;;11.13;100.00
6829;BME280;17930;48.592;8.868;2022-09-24T06:15:30;96373.09;;;11.28;100.00
6829;BME280;17930;48.592;8.868;2022-09-24T06:17:57;96370.22;;;11.30;100.00
6829;BME280;17930;48.592;8.868;2022-09-24T06:20:24;96377.38;;;11.38;100.00
6829;BME280;17930;48.592;8.868;2022-09-24T06:22:53;96379.41;;;11.41;100.00
6829;BME280;17930;48.592;8.868;2022-09-24T06:25:21;96372.44;;;11.55;100.00
6829;BME280;17930;48.592;8.868;2022-09-24T06:27:53;96373.34;;;11.45;100.00
6829;BME280;17930;48.592;8.868;2022-09-24T06:30:25;96371.00;;;11.62;100.00
6829;BME280;17930;48.592;8.868;2022-09-24T06:32:52;96371.50;;;11.64;100.00
6829;BME280;17930;48.592;8.868;2022-09-24T06:35:19;96373.63;;;11.62;100.00
6829;BME280;17930;48.592;8.868;2022-09-24T06:37:46;96377.22;;;11.66;100.00
6829;BME280;17930;48.592;8.868;2022-09-24T06:40:13;96371.75;;;11.94;100.00
6829;BME280;17930;48.592;8.868;2022-09-24T06:42:40;96369.72;;;11.78;100.00
6829;BME280;17930;48.592;8.868;2022-09-24T06:45:09;96386.22;;;11.74;100.00
6829;BME280;17930;48.592;8.868;2022-09-24T06:47:36;96377.56;;;11.91;100.00
6829;BME280;17930;48.592;8.868;2022-09-24T06:50:04;96379.81;;;11.98;100.00
6829;BME280;17930;48.592;8.868;2022-09-24T06:52:31;96378.81;;;12.07;100.00
6829;BME280;17930;48.592;8.868;2022-09-24T06:54:57;96382.59;;;11.88;100.00
6829;BME280;17930;48.592;8.868;2022-09-24T06:57:24;96379.63;;;12.08;100.00
6829;BME280;17930;48.592;8.868;2022-09-24T06:59:51;96375.44;;;12.33;100.00
6829;BME280;17930;48.592;8.868;2022-09-24T07:02:18;96382.63;;;12.28;100.00
6829;BME280;17930;48.592;8.868;2022-09-24T07:04:45;96383.38;;;12.28;100.00
6829;BME280;17930;48.592;8.868;2022-09-24T07:07:12;96388.72;;;12.50;100.00
6829;BME280;17930;48.592;8.868;2022-09-24T07:09:58;96375.25;;;12.43;100.00
6829;BME280;17930;48.592;8.868;2022-09-24T07:12:27;96387.94;;;12.63;100.00
6829;BME280;17930;48.592;8.868;2022-09-24T07:14:53;96386.47;;;12.84;100.00
6829;BME280;17930;48.592;8.868;2022-09-24T07:17:21;96389.72;;;13.03;100.00
6829;BME280;17930;48.592;8.868;2022-09-24T07:19:48;96390.53;;;12.90;100.00
6829;BME280;17930;48.592;8.868;2022-09-24T07:22:15;96390.59;;;12.98;100.00
6829;BME280;17930;48.592;8.868;2022-09-24T07:24:41;96398.03;;;13.05;100.00
6829;BME280;17930;48.592;8.868;2022-09-24T07:27:08;96392.44;;;12.98;100.00
6829;BME280;17930;48.592;8.868;2022-09-24T07:29:35;96401.22;;;13.15;100.00
6829;BME280;17930;48.592;8.868;2022-09-24T07:32:02;96408.00;;;13.16;100.00
6829;BME280;17930;48.592;8.868;2022-09-24T07:34:31;96409.09;;;13.15;100.00
6829;BME280;17930;48.592;8.868;2022-09-24T07:37:07;96404.63;;;13.16;100.00
6829;BME280;17930;48.592;8.868;2022-09-24T07:39:34;96410.59;;;13.30;100.00
6829;BME280;17930;48.592;8.868;2022-09-24T07:42:00;96412.91;;;13.31;100.00
6829;BME280;17930;48.592;8.868;2022-09-24T07:44:27;96408.88;;;13.47;100.00
6829;BME280;17930;48.592;8.868;2022-09-24T07:46:54;96409.44;;;13.66;100.00
6829;BME280;17930;48.592;8.868;2022-09-24T07:49:22;96416.56;;;13.65;100.00
6829;BME280;17930;48.592;8.868;2022-09-24T07:51:50;96415.59;;;13.61;100.00
6829;BME280;17930;48.592;8.868;2022-09-24T07:54:18;96412.63;;;13.76;100.00
6829;BME280;17930;48.592;8.868;2022-09-24T07:56:45;96411.41;;;13.82;100.00
6829;BME280;17930;48.592;8.868;2022-09-24T07:59:12;96415.34;;;13.93;100.00
6829;BME280;17930;48.592;8.868;2022-09-24T08:01:39;96418.56;;;14.12;100.00
6829;BME280;17930;48.592;8.868;2022-09-24T08:04:06;96416.97;;;14.33;100.00
6829;BME280;17930;48.592;8.868;2022-09-24T08:06:33;96428.66;;;14.27;100.00
6829;BME280;17930;48.592;8.868;2022-09-24T08:09:02;96423.28;;;14.32;100.00
6829;BME280;17930;48.592;8.868;2022-09-24T08:11:29;96420.00;;;14.26;100.00
6829;BME280;17930;48.592;8.868;2022-09-24T08:13:56;96424.88;;;14.11;100.00
6829;BME280;17930;48.592;8.868;2022-09-24T08:16:23;96430.34;;;14.23;100.00
6829;BME280;17930;48.592;8.868;2022-09-24T08:18:51;96426.19;;;14.30;100.00
6829;BME280;17930;48.592;8.868;2022-09-24T08:21:18;96424.16;;;14.19;100.00
6829;BME280;17930;48.592;8.868;2022-09-24T08:23:45;96425.81;;;14.15;100.00
6829;BME280;17930;48.592;8.868;2022-09-24T08:26:13;96426.91;;;13.92;100.00
6829;BME280;17930;48.592;8.868;2022-09-24T08:28:40;96418.47;;;13.73;100.00
6829;BME280;17930;48.592;8.868;2022-09-24T08:31:09;96432.75;;;13.67;100.00
6829;BME280;17930;48.592;8.868;2022-09-24T08:33:37;96420.00;;;13.52;100.00
6829;BME280;17930;48.592;8.868;2022-09-24T08:36:06;96419.94;;;13.66;100.00
6829;BME280;17930;48.592;8.868;2022-09-24T08:38:33;96431.22;;;13.66;100.00
6829;BME280;17930;48.592;8.868;2022-09-24T08:41:13;96424.66;;;13.55;100.00
6829;BME280;17930;48.592;8.868;2022-09-24T08:43:50;96421.97;;;13.47;100.00
6829;BME280;17930;48.592;8.868;2022-09-24T08:46:23;96422.28;;;13.45;100.00
6829;BME280;17930;48.592;8.868;2022-09-24T08:49:20;96423.69;;;13.51;100.00
6829;BME280;17930;48.592;8.868;2022-09-24T08:51:56;96414.53;;;13.62;100.00
6829;BME280;17930;48.592;8.868;2022-09-24T08:54:28;96419.41;;;13.55;100.00
6829;BME280;17930;48.592;8.868;2022-09-24T08:56:55;96423.47;;;13.61;100.00
6829;BME280;17930;48.592;8.868;2022-09-24T08:59:29;96416.78;;;13.77;100.00
6829;BME280;17930;48.592;8.868;2022-09-24T09:02:16;96418.03;;;13.80;100.00
6829;BME280;17930;48.592;8.868;2022-09-24T09:04:54;96421.31;;;13.85;100.00
6829;BME280;17930;48.592;8.868;2022-09-24T09:07:27;96421.19;;;13.90;100.00
6829;BME280;17930;48.592;8.868;2022-09-24T09:09:58;96426.78;;;13.97;100.00
6829;BME280;17930;48.592;8.868;2022-09-24T09:12:33;96420.28;;;13.94;100.00
6829;BME280;17930;48.592;8.868;2022-09-24T09:15:04;96426.50;;;13.98;100.00
6829;BME280;17930;48.592;8.868;2022-09-24T09:17:36;96421.53;;;13.97;100.00
6829;BME280;17930;48.592;8.868;2022-09-24T09:20:12;96421.72;;;14.00;100.00
6829;BME280;17930;48.592;8.868;2022-09-24T09:22:44;96424.41;;;14.09;100.00
6829;BME280;17930;48.592;8.868;2022-09-24T09:25:17;96423.19;;;14.15;100.00
6829;BME280;17930;48.592;8.868;2022-09-24T09:27:45;96408.41;;;14.19;100.00
6829;BME280;17930;48.592;8.868;2022-09-24T09:30:16;96404.78;;;14.36;100.00
6829;BME280;17930;48.592;8.868;2022-09-24T09:32:56;96403.28;;;14.52;100.00
6829;BME280;17930;48.592;8.868;2022-09-24T09:35:33;96396.22;;;14.70;100.00
6829;BME280;17930;48.592;8.868;2022-09-24T09:38:06;96404.88;;;14.70;100.00
6829;BME280;17930;48.592;8.868;2022-09-24T09:40:40;96401.22;;;14.88;100.00
6829;BME280;17930;48.592;8.868;2022-09-24T09:43:12;96404.94;;;15.12;100.00
6829;BME280;17930;48.592;8.868;2022-09-24T09:45:48;96396.66;;;15.19;100.00
6829;BME280;17930;48.592;8.868;2022-09-24T09:48:19;96402.69;;;15.36;100.00
6829;BME280;17930;48.592;8.868;2022-09-24T09:50:48;96401.59;;;15.54;100.00
6829;BME280;17930;48.592;8.868;2022-09-24T09:53:17;96401.41;;;15.67;100.00
6829;BME280;17930;48.592;8.868;2022-09-24T09:55:50;96403.72;;;15.77;100.00
6829;BME280;17930;48.592;8.868;2022-09-24T09:58:21;96399.19;;;15.86;100.00
6829;BME280;17930;48.592;8.868;2022-09-24T10:00:50;96406.97;;;15.74;100.00
6829;BME280;17930;48.592;8.868;2022-09-24T10:03:25;96387.91;;;15.86;100.00
6829;BME280;17930;48.592;8.868;2022-09-24T10:05:55;96388.81;;;15.98;100.00
6829;BME280;17930;48.592;8.868;2022-09-24T10:08:23;96393.03;;;15.90;100.00
6829;BME280;17930;48.592;8.868;2022-09-24T10:10:54;96395.06;;;15.68;100.00
6829;BME280;17930;48.592;8.868;2022-09-24T10:13:21;96392.16;;;15.61;100.00
6829;BME280;17930;48.592;8.868;2022-09-24T10:15:50;96390.25;;;15.70;100.00
6829;BME280;17930;48.592;8.868;2022-09-24T10:18:26;96387.63;;;15.70;100.00
6829;BME280;17930;48.592;8.868;2022-09-24T10:20:54;96395.81;;;15.86;100.00
6829;BME280;17930;48.592;8.868;2022-09-24T10:23:27;96395.44;;;16.12;100.00
6829;BME280;17930;48.592;8.868;2022-09-24T10:25:59;96391.03;;;16.42;100.00
6829;BME280;17930;48.592;8.868;2022-09-24T10:28:27;96395.19;;;16.42;100.00
6829;BME280;17930;48.592;8.868;2022-09-24T10:31:17;96393.84;;;16.65;100.00
6829;BME280;17930;48.592;8.868;2022-09-24T10:33:47;96394.25;;;16.76;100.00
6829;BME280;17930;48.592;8.868;2022-09-24T10:36:18;96394.75;;;16.69;100.00
6829;BME280;17930;48.592;8.868;2022-09-24T10:38:46;96389.66;;;16.93;100.00
6829;BME280;17930;48.592;8.868;2022-09-24T10:41:23;96391.63;;;17.25;100.00
6829;BME280;17930;48.592;8.868;2022-09-24T10:43:52;96389.25;;;17.84;100.00
6829;BME280;17930;48.592;8.868;2022-09-24T10:46:35;96388.75;;;18.02;100.00
6829;BME280;17930;48.592;8.868;2022-09-24T10:49:12;96395.63;;;17.95;100.00
6829;BME280;17930;48.592;8.868;2022-09-24T10:51:52;96395.00;;;17.66;100.00
6829;BME280;17930;48.592;8.868;2022-09-24T10:54:35;96389.31;;;17.44;100.00
6829;BME280;17930;48.592;8.868;2022-09-24T10:57:15;96391.94;;;17.44;100.00
6829;BME280;17930;48.592;8.868;2022-09-24T10:59:50;96391.88;;;17.52;100.00
6829;BME280;17930;48.592;8.868;2022-09-24T11:02:43;96397.00;;;17.08;100.00
6829;BME280;17930;48.592;8.868;2022-09-24T11:05:20;96397.88;;;17.12;100.00
6829;BME280;17930;48.592;8.868;2022-09-24T11:07:59;96404.81;;;16.96;100.00
6829;BME280;17930;48.592;8.868;2022-09-24T11:10:42;96393.56;;;16.87;100.00
6829;BME280;17930;48.592;8.868;2022-09-24T11:13:22;96392.00;;;17.35;100.00
6829;BME280;17930;48.592;8.868;2022-09-24T11:16:02;96379.50;;;17.64;100.00
6829;BME280;17930;48.592;8.868;2022-09-24T11:18:44;96389.25;;;17.84;100.00
6829;BME280;17930;48.592;8.868;2022-09-24T11:21:22;96396.50;;;17.55;100.00
6829;BME280;17930;48.592;8.868;2022-09-24T11:24:13;96400.34;;;17.57;100.00
6829;BME280;17930;48.592;8.868;2022-09-24T11:26:56;96394.44;;;17.60;100.00
6829;BME280;17930;48.592;8.868;2022-09-24T11:29:33;96389.91;;;17.61;100.00
6829;BME280;17930;48.592;8.868;2022-09-24T11:32:11;96396.06;;;17.33;100.00
6829;BME280;17930;48.592;8.868;2022-09-24T11:34:54;96392.53;;;17.00;100.00
6829;BME280;17930;48.592;8.868;2022-09-24T11:37:36;96393.50;;;16.95;100.00
6829;BME280;17930;48.592;8.868;2022-09-24T11:40:28;96389.00;;;16.96;100.00
6829;BME280;17930;48.592;8.868;2022-09-24T11:43:09;96386.56;;;16.91;100.00
6829;BME280;17930;48.592;8.868;2022-09-24T11:45:47;96380.75;;;16.77;100.00
6829;BME280;17930;48.592;8.868;2022-09-24T11:48:35;96384.72;;;16.63;100.00
6829;BME280;17930;48.592;8.868;2022-09-24T11:51:17;96383.88;;;16.42;100.00
6829;BME280;17930;48.592;8.868;2022-09-24T11:53:50;96382.66;;;16.40;100.00
6829;BME280;17930;48.592;8.868;2022-09-24T11:56:25;96372.63;;;16.62;100.00
6829;BME280;17930;48.592;8.868;2022-09-24T11:58:58;96368.13;;;16.62;100.00
6829;BME280;17930;48.592;8.868;2022-09-24T12:01:29;96366.38;;;16.46;100.00
6829;BME280;17930;48.592;8.868;2022-09-24T12:04:00;96369.09;;;16.21;100.00
6829;BME280;17930;48.592;8.868;2022-09-24T12:06:33;96374.94;;;15.89;100.00
6829;BME280;17930;48.592;8.868;2022-09-24T12:09:08;96365.81;;;15.78;100.00
6829;BME280;17930;48.592;8.868;2022-09-24T12:11:40;96361.97;;;15.67;100.00
6829;BME280;17930;48.592;8.868;2022-09-24T12:14:13;96370.59;;;15.76;100.00
6829;BME280;17930;48.592;8.868;2022-09-24T12:16:44;96360.06;;;15.76;100.00
6829;BME280;17930;48.592;8.868;2022-09-24T12:19:18;96359.19;;;15.72;100.00
6829;BME280;17930;48.592;8.868;2022-09-24T12:21:49;96362.72;;;15.68;100.00
6829;BME280;17930;48.592;8.868;2022-09-24T12:24:28;96359.34;;;15.67;100.00
6829;BME280;17930;48.592;8.868;2022-09-24T12:27:00;96359.66;;;15.57;100.00
6829;BME280;17930;48.592;8.868;2022-09-24T12:29:44;96357.97;;;15.61;100.00
6829;BME280;17930;48.592;8.868;2022-09-24T12:32:35;96359.34;;;15.67;100.00
6829;BME280;17930;48.592;8.868;2022-09-24T12:35:33;96357.28;;;15.81;100.00
6829;BME280;17930;48.592;8.868;2022-09-24T12:38:07;96359.16;;;15.89;100.00
6829;BME280;17930;48.592;8.868;2022-09-24T12:40:58;96360.06;;;15.85;100.00
6829;BME280;17930;48.592;8.868;2022-09-24T12:43:38;96351.69;;;15.91;100.00
6829;BME280;17930;48.592;8.868;2022-09-24T12:46:15;96343.69;;;15.79;100.00
6829;BME280;17930;48.592;8.868;2022-09-24T12:48:44;96347.84;;;15.88;100.00
6829;BME280;17930;48.592;8.868;2022-09-24T12:51:12;96344.25;;;15.93;100.00
6829;BME280;17930;48.592;8.868;2022-09-24T12:53:42;96341.22;;;15.74;100.00
6829;BME280;17930;48.592;8.868;2022-09-24T12:56:22;96339.53;;;15.78;100.00
6829;BME280;17930;48.592;8.868;2022-09-24T12:58:49;96336.72;;;15.75;100.00
6829;BME280;17930;48.592;8.868;2022-09-24T13:01:26;96334.38;;;15.90;100.00
6829;BME280;17930;48.592;8.868;2022-09-24T13:04:01;96333.09;;;15.96;100.00
6829;BME280;17930;48.592;8.868;2022-09-24T13:06:31;96325.97;;;16.05;100.00
6829;BME280;17930;48.592;8.868;2022-09-24T13:09:00;96322.16;;;16.23;100.00
6829;BME280;17930;48.592;8.868;2022-09-24T13:11:29;96321.00;;;16.41;100.00
6829;BME280;17930;48.592;8.868;2022-09-24T13:14:18;96319.59;;;16.72;100.00
6829;BME280;17930;48.592;8.868;2022-09-24T13:16:48;96316.63;;;17.14;100.00
6829;BME280;17930;48.592;8.868;2022-09-24T13:19:23;96319.00;;;17.59;100.00
6829;BME280;17930;48.592;8.868;2022-09-24T13:21:57;96318.69;;;18.64;100.00
6829;BME280;17930;48.592;8.868;2022-09-24T13:24:27;96317.88;;;20.43;100.00